Decoded Metar for KLAS (LAS VEGAS in NV, USA) (IATA:LAS) | Meteo·Mobile Aviation Weather
aviador You're here:

KLAS Decoded Metar

LAS VEGAS in NV, USA
Report Time2018-12-14 11:56:00
UTC Time2018-12-14 13:02:14
Flight Rules vfr VFR
Wind200° at 04 kt
W.Decomp.*RWY 19: 4.0 kt HW 0.3 kt LCW
RWY 25: 1.7 kt HW 3.6 kt LCW
W.Rank200° ranks 1
Current wind is below 200° avg. (7.8)
Visibility9999 m
Phenomena:N/A
Clouds:Broken 250 Hf
Expected CloudBase > 4,800 ft AGL from Temp-Dew spread
Ceiling25,000 ft
Temp05°C (ISA -6)
Dew Point-7°C (42% RH)
AAT0.8°C
QNH1026 hPa
Density Alt1,001 ft
Elevation2,087 ft
Report Wrong Elevation
Raw Report
KLAS 141156Z 20004KT 10SM BKN250 05/M07 A3031 RMK AO2 SLP264
T00501067 10072 20044 58005=

Extra information for KLAS:More info

Metar Taf Metar & Taf Last 4 Metars F.Rules Stats Wind Profile Meteogram Temp Stats Airport Information Weather charts Add Link Nearby VenuesMetar ALERT Operation Metar Decoded Social comments

AIRNAV info for KLAS